Time;durP1;ratioP1;P1;durP2;ratioP2;P2;SDS_P1;SDS_P2;PMS_P1;PMS_P2;Temp;Humidity;BMP_temperature;BMP_pressure;BME280_temperature;BME280_humidity;BME280_pressure;Samples;Min_cycle;Max_cycle;Signal;HPM_P1;HPM_P2
2022/12/02 00:01:39;;;;;;;38.40;20.30;;;1.70;99.90;;;0.47;100.00;102080.16;4219128;28;20430;-83
2022/12/02 00:03:40;;;;;;;36.17;19.50;;;1.60;99.90;;;0.43;100.00;102086.34;4219217;28;20530;-83
2022/12/02 00:05:41;;;;;;;40.22;19.42;;;1.60;99.90;;;0.38;100.00;102085.69;4219279;28;20027;-83
2022/12/02 00:07:42;;;;;;;45.97;22.00;;;1.50;99.90;;;0.35;100.00;102086.66;4218490;28;20028;-83
2022/12/02 00:09:43;;;;;;;41.95;22.58;;;1.50;99.90;;;0.29;100.00;102081.69;4220372;28;20015;-83
2022/12/02 00:11:45;;;;;;;40.70;20.42;;;1.40;99.90;;;0.27;100.00;102080.88;4219113;28;20024;-82
2022/12/02 00:13:46;;;;;;;42.08;22.00;;;1.40;99.90;;;0.20;100.00;102073.41;4220639;28;20027;-82
2022/12/02 00:16:22;;;;;;;37.83;20.80;;;1.40;99.90;;;0.20;100.00;102068.22;4219016;28;20032;-82
2022/12/02 00:18:23;;;;;;;43.55;20.55;;;1.30;99.90;;;0.13;100.00;102058.94;4219237;28;20024;-82
2022/12/02 00:20:24;;;;;;;40.95;22.52;;;1.30;99.90;;;0.10;100.00;102054.72;4219291;28;20032;-82
2022/12/02 00:22:25;;;;;;;43.63;21.63;;;1.30;99.90;;;0.08;100.00;102047.91;4252806;27;20035;-82
2022/12/02 00:24:26;;;;;;;38.55;20.17;;;1.20;99.90;;;0.10;100.00;102056.47;4219035;28;20064;-82
2022/12/02 00:26:27;;;;;;;39.58;21.00;;;1.20;99.90;;;0.05;100.00;102053.22;4220028;28;20059;-82
2022/12/02 00:28:27;;;;;;;38.13;21.70;;;1.20;99.90;;;0.06;100.00;102053.16;4252873;27;20016;-82
2022/12/02 00:30:29;;;;;;;41.40;21.00;;;1.20;99.90;;;0.05;100.00;102050.63;4219122;28;20020;-82
2022/12/02 00:32:30;;;;;;;40.70;22.05;;;1.20;99.90;;;0.04;100.00;102054.09;4219865;28;20456;-83
2022/12/02 00:34:30;;;;;;;47.45;23.98;;;1.10;99.90;;;0.02;100.00;102053.31;4218724;28;20035;-82
2022/12/02 00:36:32;;;;;;;43.88;25.23;;;1.20;99.90;;;0.03;100.00;102044.66;4218902;28;20384;-83
2022/12/02 00:38:33;;;;;;;44.45;23.15;;;1.10;99.90;;;-0.03;100.00;102038.78;4218875;28;20055;-83
2022/12/02 00:40:34;;;;;;;45.25;24.08;;;1.10;99.90;;;-0.03;100.00;102043.97;4218846;28;20027;-83
2022/12/02 00:42:35;;;;;;;47.22;23.58;;;1.10;99.90;;;-0.07;100.00;102036.38;4219813;28;20024;-83
2022/12/02 00:46:55;;;;;;;50.33;25.33;;;1.00;99.90;;;-0.10;100.00;102039.91;4218649;28;20086;-82
2022/12/02 00:48:56;;;;;;;43.08;23.50;;;1.10;99.90;;;-0.09;100.00;102027.81;4219919;28;20020;-82
2022/12/02 00:50:56;;;;;;;47.28;23.55;;;1.00;99.90;;;-0.14;100.00;102033.16;4219916;28;20034;-82
2022/12/02 00:52:57;;;;;;;43.95;23.42;;;1.00;99.90;;;-0.06;100.00;102032.88;4218847;28;20039;-82
2022/12/02 00:54:58;;;;;;;51.53;24.48;;;1.00;99.90;;;-0.03;100.00;102031.00;4219892;28;20024;-82
2022/12/02 00:57:00;;;;;;;45.60;23.38;;;1.00;99.90;;;-0.04;100.00;102026.72;4218554;28;20024;-82
2022/12/02 00:59:01;;;;;;;62.67;28.25;;;1.10;99.90;;;-0.01;100.00;102031.81;4219729;28;20495;-82
2022/12/02 01:01:02;;;;;;;53.42;23.75;;;1.10;99.90;;;0.10;100.00;102033.13;4218484;28;20913;-82
2022/12/02 01:03:03;;;;;;;58.13;26.63;;;1.10;99.90;;;0.10;100.00;102033.13;4219714;28;20111;-82
2022/12/02 01:05:05;;;;;;;50.38;23.60;;;1.20;99.90;;;0.13;100.00;102027.81;4218435;28;20064;-82
2022/12/02 01:07:06;;;;;;;53.65;24.52;;;1.20;99.90;;;0.17;100.00;102032.00;4251910;27;20027;-82
2022/12/02 01:09:07;;;;;;;55.72;25.17;;;1.20;99.90;;;0.19;100.00;102030.19;4219753;28;20136;-82
2022/12/02 01:11:08;;;;;;;61.08;27.98;;;1.30;99.90;;;0.23;100.00;102023.97;4218151;28;20024;-82
2022/12/02 01:13:09;;;;;;;55.08;26.10;;;1.30;99.90;;;0.28;100.00;102027.25;4218263;28;20039;-82
2022/12/02 01:15:10;;;;;;;52.25;25.50;;;1.40;99.90;;;0.31;100.00;102025.38;4218450;28;20125;-82
2022/12/02 01:17:11;;;;;;;60.05;25.95;;;1.40;99.90;;;0.28;100.00;102016.84;4218160;28;20086;-82
2022/12/02 01:19:12;;;;;;;57.45;25.50;;;1.40;99.90;;;0.32;100.00;102026.22;4218464;28;20028;-82
2022/12/02 01:21:13;;;;;;;48.53;24.70;;;1.40;99.90;;;0.28;100.00;102029.84;4218172;28;20024;-83
2022/12/02 01:23:14;;;;;;;55.95;25.65;;;1.40;99.90;;;0.32;100.00;102028.81;4217909;28;20128;-82
2022/12/02 01:25:15;;;;;;;54.92;25.67;;;1.40;99.90;;;0.28;100.00;102016.84;4219315;28;20028;-82
2022/12/02 01:27:16;;;;;;;51.92;24.50;;;1.40;99.90;;;0.29;100.00;102027.19;4219256;28;20400;-83
2022/12/02 01:29:17;;;;;;;50.08;24.60;;;1.40;99.90;;;0.24;100.00;102030.88;4218163;28;20031;-82
2022/12/02 01:31:18;;;;;;;51.42;23.90;;;1.40;99.90;;;0.25;100.00;102027.34;4217587;28;20530;-82
2022/12/02 01:33:18;;;;;;;53.70;24.75;;;1.30;99.90;;;0.23;100.00;102024.84;4218036;28;20146;-82
2022/12/02 01:35:20;;;;;;;53.90;25.42;;;1.30;99.90;;;0.17;100.00;102024.22;4219109;28;20024;-83
2022/12/02 01:37:21;;;;;;;50.47;24.73;;;1.30;99.90;;;0.16;100.00;102018.19;4218012;28;20035;-82
2022/12/02 01:39:22;;;;;;;54.50;25.42;;;1.30;99.90;;;0.17;100.00;102026.81;4217746;28;20020;-82
2022/12/02 01:41:23;;;;;;;52.50;24.70;;;1.30;99.90;;;0.13;100.00;102015.69;4251695;27;20031;-82
2022/12/02 01:43:25;;;;;;;51.67;25.70;;;1.30;99.90;;;0.13;100.00;102017.44;4217901;28;20108;-82
2022/12/02 01:45:26;;;;;;;51.75;24.40;;;1.20;99.90;;;0.14;100.00;102012.22;4217861;28;20027;-83
2022/12/02 01:47:27;;;;;;;52.80;25.55;;;1.20;99.90;;;0.13;100.00;102013.09;4217303;28;20047;-83
2022/12/02 01:49:28;;;;;;;58.78;24.52;;;1.20;99.90;;;0.16;100.00;102014.72;4217802;28;20024;-82
2022/12/02 01:51:29;;;;;;;52.95;24.88;;;1.20;99.90;;;0.17;100.00;102019.88;4217820;28;20020;-82
2022/12/02 01:53:31;;;;;;;55.97;26.92;;;1.30;99.90;;;0.20;100.00;102011.13;4217697;28;20099;-82
2022/12/02 01:55:32;;;;;;;48.88;24.33;;;1.30;99.90;;;0.21;100.00;102015.44;4217497;28;20016;-82
2022/12/02 01:57:33;;;;;;;51.08;24.58;;;1.30;99.90;;;0.18;100.00;102012.94;4218942;28;20516;-83
2022/12/02 01:59:34;;;;;;;52.42;24.73;;;1.30;99.90;;;0.16;100.00;102009.53;4217739;28;20024;-83
2022/12/02 02:01:35;;;;;;;56.67;26.65;;;1.20;99.90;;;0.16;100.00;102004.34;4217358;28;20408;-82
2022/12/02 02:03:36;;;;;;;54.28;25.65;;;1.20;99.90;;;0.16;100.00;102005.22;4218598;28;20024;-83
2022/12/02 02:05:37;;;;;;;57.08;27.23;;;1.20;99.90;;;0.20;100.00;102011.97;4218744;28;20042;-83
2022/12/02 02:07:39;;;;;;;52.55;25.70;;;1.30;99.90;;;0.17;100.00;101998.28;4218652;28;20028;-83
2022/12/02 02:09:40;;;;;;;62.20;27.75;;;1.30;99.90;;;0.19;100.00;102005.09;4217395;28;20047;-82
2022/12/02 02:11:42;;;;;;;56.85;27.10;;;1.30;99.90;;;0.19;100.00;102004.25;4200572;28;20539;-83
2022/12/02 02:13:43;;;;;;;52.22;25.27;;;1.30;99.90;;;0.17;100.00;102006.06;4218928;28;20047;-83
2022/12/02 02:15:44;;;;;;;50.13;25.20;;;1.30;99.90;;;0.14;100.00;102001.00;4217422;28;20051;-82
2022/12/02 02:17:46;;;;;;;50.88;25.00;;;1.30;99.90;;;0.10;100.00;101992.47;4216293;28;20050;-82
2022/12/02 02:19:47;;;;;;;55.10;26.15;;;1.20;99.90;;;0.10;100.00;102002.00;4217288;28;20036;-82
2022/12/02 02:21:53;;;;;;;55.65;25.92;;;1.20;99.90;;;0.12;100.00;102000.22;4200305;28;20040;-81
2022/12/02 02:23:54;;;;;;;53.67;25.27;;;1.20;99.90;;;0.08;100.00;101993.44;4217514;28;20039;-81
2022/12/02 02:25:58;;;;;;;55.08;25.77;;;1.20;99.90;;;0.07;100.00;102002.13;4200434;28;20029;-81
2022/12/02 02:28:00;;;;;;;50.63;25.05;;;1.10;99.90;;;0.02;100.00;101996.28;4233976;28;20024;-81
2022/12/02 02:30:02;;;;;;;55.97;26.05;;;1.10;99.90;;;-0.02;100.00;101992.94;4220014;28;20042;-82
2022/12/02 02:32:03;;;;;;;54.13;24.77;;;1.10;99.90;;;-0.06;100.00;101988.78;4256703;27;20106;-82
2022/12/02 02:34:04;;;;;;;52.83;25.45;;;1.10;99.90;;;-0.05;100.00;101995.66;4222980;28;20024;-82
2022/12/02 02:36:07;;;;;;;55.72;25.40;;;1.00;99.90;;;-0.12;100.00;101987.25;4222896;28;20030;-81
2022/12/02 02:38:11;;;;;;;53.25;23.20;;;1.00;99.90;;;-0.12;100.00;101987.25;4223117;28;20086;-81
2022/12/02 02:40:15;;;;;;;;;;;1.00;99.90;;;-0.16;100.00;101990.03;4223390;28;20027;-82
2022/12/02 02:42:16;;;;;;;48.78;22.65;;;1.00;99.90;;;-0.20;100.00;101978.06;4206195;28;19920;-82
2022/12/02 02:44:17;;;;;;;46.38;22.48;;;1.00;99.90;;;-0.20;100.00;101981.50;4222629;28;20503;-82
2022/12/02 02:46:18;;;;;;;50.08;23.30;;;0.90;99.90;;;-0.26;100.00;101984.34;4222511;28;20024;-83
2022/12/02 02:48:20;;;;;;;45.38;22.38;;;0.90;99.90;;;-0.29;100.00;101978.41;4222734;28;20069;-82
2022/12/02 02:50:22;;;;;;;46.78;21.95;;;0.90;99.90;;;-0.33;100.00;101979.44;4222681;28;20021;-83
2022/12/02 02:52:23;;;;;;;44.00;23.08;;;0.80;99.90;;;-0.32;100.00;101984.56;4222553;28;20080;-82
2022/12/02 02:54:24;;;;;;;43.85;21.83;;;0.80;99.90;;;-0.38;100.00;101969.22;4223970;28;20060;-82
2022/12/02 02:56:25;;;;;;;47.70;22.08;;;0.80;99.90;;;-0.40;100.00;101970.19;4222712;28;20040;-82
2022/12/02 02:58:27;;;;;;;43.53;23.52;;;0.70;99.90;;;-0.44;100.00;101969.44;4223818;28;20024;-82
2022/12/02 03:00:28;;;;;;;46.72;22.67;;;0.70;99.90;;;-0.48;100.00;101962.72;4222485;28;20036;-82
2022/12/02 03:02:29;;;;;;;42.28;22.83;;;0.70;99.90;;;-0.48;100.00;101962.72;4223699;28;20028;-83
2022/12/02 03:04:30;;;;;;;44.83;20.92;;;0.70;99.90;;;-0.49;100.00;101967.94;4222702;28;20036;-83
2022/12/02 03:06:34;;;;;;;44.10;22.42;;;0.60;99.90;;;-0.53;100.00;101959.41;4222529;28;20412;-83
2022/12/02 03:08:41;;;;;;;49.58;23.08;;;0.60;99.90;;;-0.58;100.00;101950.97;4222427;28;20059;-83
2022/12/02 03:10:43;;;;;;;39.28;20.10;;;0.60;99.90;;;-0.62;100.00;101941.63;4205917;28;20087;-82
2022/12/02 03:12:45;;;;;;;44.22;20.45;;;0.60;99.90;;;-0.66;100.00;101938.28;4223841;28;20031;-82
2022/12/02 03:14:47;;;;;;;41.53;21.63;;;0.60;99.90;;;-0.60;100.00;101942.44;4222538;28;20507;-81
2022/12/02 03:16:49;;;;;;;42.53;22.13;;;0.60;99.90;;;-0.60;100.00;101943.25;4222206;28;20034;-82
2022/12/02 03:18:52;;;;;;;44.28;21.10;;;0.50;99.90;;;-0.60;100.00;101947.59;4222452;28;20024;-82
2022/12/02 03:20:53;;;;;;;42.47;21.25;;;0.60;99.90;;;-0.64;100.00;101940.84;4222489;28;20102;-82
2022/12/02 03:22:54;;;;;;;42.90;20.38;;;0.50;99.90;;;-0.69;100.00;101934.97;4222448;28;20118;-83
2022/12/02 03:24:55;;;;;;;44.80;21.67;;;0.50;99.90;;;-0.65;100.00;101933.94;4223512;28;20039;-82
2022/12/02 03:26:57;;;;;;;39.08;21.52;;;0.50;99.90;;;-0.67;100.00;101922.81;4223578;28;20121;-83
2022/12/02 03:28:59;;;;;;;38.90;20.92;;;0.50;99.90;;;-0.70;100.00;101926.38;4222527;28;20032;-82
2022/12/02 03:31:02;;;;;;;40.78;19.83;;;0.50;99.90;;;-0.70;100.00;101920.34;4222316;28;20469;-83
2022/12/02 03:33:03;;;;;;;48.20;21.48;;;0.40;99.90;;;-0.75;100.00;101912.75;4222262;28;20030;-83
2022/12/02 03:35:05;;;;;;;46.35;21.63;;;0.40;99.90;;;-0.73;100.00;101912.66;4222431;28;20063;-82
2022/12/02 03:37:07;;;;;;;45.80;22.17;;;0.40;99.90;;;-0.70;100.00;101907.38;4222756;28;20387;-82
2022/12/02 03:39:09;;;;;;;45.80;21.02;;;0.40;99.90;;;-0.75;100.00;101906.72;4223488;28;20024;-83
2022/12/02 03:41:11;;;;;;;42.20;19.90;;;0.40;99.90;;;-0.70;100.00;101920.34;4203735;28;20090;-82
2022/12/02 03:43:13;;;;;;;46.85;22.08;;;0.40;99.90;;;-0.77;100.00;101901.56;4220913;28;20043;-82
2022/12/02 03:45:14;;;;;;;47.42;22.80;;;0.40;99.90;;;-0.76;100.00;101911.03;4219786;28;20115;-83
2022/12/02 03:47:15;;;;;;;48.30;22.88;;;0.40;99.90;;;-0.79;100.00;101911.16;4219379;28;20050;-83
2022/12/02 03:49:17;;;;;;;42.28;21.20;;;0.30;99.90;;;-0.81;100.00;101917.28;4219499;28;20063;-83
2022/12/02 03:51:18;;;;;;;39.78;20.90;;;0.40;99.90;;;-0.82;100.00;101915.59;4202839;28;20032;-82
2022/12/02 03:53:20;;;;;;;44.70;20.75;;;0.30;99.90;;;-0.80;100.00;101916.38;4236548;28;20027;-83
2022/12/02 03:55:21;;;;;;;44.72;21.40;;;0.30;99.90;;;-0.88;100.00;101905.44;4236253;28;20024;-82
2022/12/02 03:57:23;;;;;;;44.78;22.20;;;0.30;99.90;;;-0.88;100.00;101908.88;4219502;28;20027;-83
2022/12/02 03:59:26;;;;;;;43.45;19.98;;;0.30;99.90;;;-0.92;100.00;101904.72;4219512;28;20028;-82
2022/12/02 04:01:27;;;;;;;41.60;20.25;;;0.20;99.90;;;-0.89;100.00;101903.75;4219369;28;20400;-83
2022/12/02 04:03:28;;;;;;;48.75;23.40;;;0.20;99.90;;;-0.88;100.00;101910.63;4220507;28;20062;-83
2022/12/02 04:05:29;;;;;;;43.83;20.48;;;0.30;99.90;;;-0.87;100.00;101904.56;4220400;28;20036;-82
2022/12/02 04:07:30;;;;;;;38.15;19.55;;;0.20;99.90;;;-0.86;100.00;101908.81;4202451;28;20032;-82
2022/12/02 04:09:31;;;;;;;43.50;20.30;;;0.30;99.90;;;-0.89;100.00;101906.34;4220497;28;20028;-82
2022/12/02 04:11:32;;;;;;;46.22;20.70;;;0.30;99.90;;;-0.83;100.00;101901.78;4219198;28;20422;-82
2022/12/02 04:13:33;;;;;;;43.08;22.42;;;0.30;99.90;;;-0.85;100.00;101897.56;4220169;28;20032;-83
2022/12/02 04:15:33;;;;;;;50.50;23.23;;;0.30;99.90;;;-0.86;100.00;101894.13;4220323;28;20032;-82
2022/12/02 04:17:34;;;;;;;45.13;22.10;;;0.30;99.90;;;-0.84;100.00;101891.50;4219284;28;20032;-82
2022/12/02 04:19:35;;;;;;;49.00;22.85;;;0.30;99.90;;;-0.79;100.00;101903.38;4219417;28;20403;-82
2022/12/02 04:21:36;;;;;;;51.55;22.98;;;0.30;99.90;;;-0.77;100.00;101901.56;4220215;28;20032;-83
2022/12/02 04:23:37;;;;;;;50.17;22.23;;;0.30;99.90;;;-0.75;100.00;101896.34;4220163;28;20068;-82
2022/12/02 04:25:38;;;;;;;43.45;21.08;;;0.40;99.90;;;-0.80;100.00;101891.31;4219060;28;20035;-82
2022/12/02 04:27:39;;;;;;;48.33;22.00;;;0.30;99.90;;;-0.80;100.00;101893.06;4220129;28;20392;-83
2022/12/02 04:29:40;;;;;;;45.90;22.42;;;0.30;99.90;;;-0.84;100.00;101883.72;4220011;28;20024;-83
2022/12/02 04:31:41;;;;;;;44.40;20.48;;;0.30;99.90;;;-0.82;100.00;101892.28;4219988;28;20032;-82
2022/12/02 04:33:42;;;;;;;46.80;23.52;;;0.30;99.90;;;-0.83;100.00;101887.97;4218984;28;20024;-83
2022/12/02 04:35:42;;;;;;;53.30;22.52;;;0.30;99.90;;;-0.80;100.00;101893.06;4218825;28;20025;-82
2022/12/02 04:37:43;;;;;;;52.35;23.50;;;0.30;99.90;;;-0.87;100.00;101886.44;4218614;28;20090;-83
2022/12/02 04:39:44;;;;;;;49.85;23.48;;;0.30;99.90;;;-0.83;100.00;101888.84;4218794;28;20035;-82
2022/12/02 04:41:45;;;;;;;44.80;20.65;;;0.30;99.90;;;-0.77;100.00;101887.75;4219938;28;20028;-82
2022/12/02 04:43:46;;;;;;;46.45;20.92;;;0.30;99.90;;;-0.79;100.00;101884.41;4219971;28;20377;-82
2022/12/02 04:45:47;;;;;;;44.38;21.85;;;0.30;99.90;;;-0.80;100.00;101877.50;4218448;28;20031;-82
2022/12/02 04:47:47;;;;;;;50.42;22.25;;;0.40;99.90;;;-0.79;100.00;101884.41;4218641;28;20032;-83
2022/12/02 04:49:48;;;;;;;46.92;22.15;;;0.30;99.90;;;-0.85;100.00;101884.63;4236021;28;20064;-82
2022/12/02 04:51:49;;;;;;;55.28;22.95;;;0.30;99.90;;;-0.84;100.00;101883.72;4219828;28;20158;-82
2022/12/02 04:53:50;;;;;;;50.85;23.42;;;0.30;99.90;;;-0.76;100.00;101892.06;4218178;28;20016;-82
2022/12/02 04:55:51;;;;;;;45.63;21.67;;;0.30;99.90;;;-0.78;100.00;101880.91;4219652;28;20024;-82
2022/12/02 04:57:52;;;;;;;47.90;20.55;;;0.30;99.90;;;-0.78;100.00;101880.91;4219744;28;20032;-82
2022/12/02 04:59:52;;;;;;;47.25;21.95;;;0.30;99.90;;;-0.83;100.00;101887.97;4218519;28;20031;-82
2022/12/02 05:01:53;;;;;;;48.45;21.40;;;0.30;99.90;;;-0.83;100.00;101887.97;4219237;28;20035;-82
2022/12/02 05:03:54;;;;;;;48.40;21.90;;;0.30;99.90;;;-0.87;100.00;101870.88;4218273;28;20024;-83
2022/12/02 05:05:55;;;;;;;49.67;22.00;;;0.30;99.90;;;-0.83;100.00;101873.28;4218534;28;20078;-82
2022/12/02 05:07:56;;;;;;;42.92;20.25;;;0.30;99.90;;;-0.84;100.00;101882.00;4219547;28;20024;-82
2022/12/02 05:09:57;;;;;;;45.60;22.17;;;0.30;99.90;;;-0.84;100.00;101883.72;4219480;28;20028;-82
2022/12/02 05:11:58;;;;;;;45.13;20.05;;;0.30;99.90;;;-0.89;100.00;101877.84;4218292;28;20020;-82
2022/12/02 05:13:59;;;;;;;44.83;21.65;;;0.30;99.90;;;-0.86;100.00;101888.09;4219504;28;20020;-82
2022/12/02 05:15:59;;;;;;;51.75;23.48;;;0.30;99.90;;;-0.85;100.00;101887.22;4218166;28;20028;-82
2022/12/02 05:18:00;;;;;;;48.33;21.88;;;0.30;99.90;;;-0.89;100.00;101894.25;4218564;28;20020;-82
2022/12/02 05:20:01;;;;;;;50.97;24.73;;;0.30;99.90;;;-0.88;100.00;101889.91;4201119;28;20032;-82
2022/12/02 05:22:02;;;;;;;44.78;21.48;;;0.20;99.90;;;-0.92;100.00;101888.31;4251890;27;20454;-82
2022/12/02 05:24:03;;;;;;;47.97;21.92;;;0.20;99.90;;;-0.94;100.00;101890.97;4218152;28;20028;-81
2022/12/02 05:26:04;;;;;;;47.88;20.77;;;0.20;99.90;;;-0.97;100.00;101892.81;4234707;28;20108;-82
2022/12/02 05:28:05;;;;;;;38.03;19.95;;;0.20;99.90;;;-0.97;100.00;101890.22;4217935;28;20472;-81
2022/12/02 05:30:07;;;;;;;43.30;21.55;;;0.20;99.90;;;-1.02;100.00;101886.97;4219317;28;20021;-82
2022/12/02 05:32:08;;;;;;;39.83;20.63;;;0.10;99.90;;;-1.01;100.00;101888.66;4217807;28;20523;-82
2022/12/02 05:34:09;;;;;;;45.05;19.60;;;0.10;99.90;;;-1.07;100.00;101881.09;4219124;28;20040;-82
2022/12/02 05:36:11;;;;;;;41.90;20.52;;;0.10;99.90;;;-1.02;100.00;101892.16;4218513;28;20055;-82
2022/12/02 05:38:12;;;;;;;44.70;20.08;;;0.10;99.90;;;-1.00;100.00;101891.19;4217930;28;20028;-82
2022/12/02 05:40:13;;;;;;;41.58;20.63;;;0.10;99.90;;;-1.01;100.00;101886.06;4219119;28;20031;-82
2022/12/02 05:42:14;;;;;;;46.70;21.77;;;0.10;99.90;;;-0.98;100.00;101888.53;4217847;28;20016;-82
2022/12/02 05:44:19;;;;;;;41.38;19.73;;;0.10;99.90;;;-0.96;100.00;101886.75;4218868;28;20461;-82
2022/12/02 05:46:21;;;;;;;43.22;21.15;;;0.10;99.90;;;-0.97;100.00;101882.47;4217588;28;20039;-82
2022/12/02 05:48:24;;;;;;;40.25;18.80;;;0.20;99.90;;;-0.96;100.00;101881.56;4217760;28;20028;-82
2022/12/02 05:50:30;;;;;;;42.78;20.73;;;0.20;99.90;;;-0.96;100.00;101881.56;4217684;28;20105;-82
2022/12/02 05:52:32;;;;;;;45.03;20.55;;;0.20;99.90;;;-0.83;100.00;101882.81;4234041;27;20032;-81
2022/12/02 05:54:33;;;;;;;49.58;21.90;;;0.30;99.90;;;-0.71;100.00;101874.59;4217850;28;20073;-81
2022/12/02 05:56:34;;;;;;;45.67;22.70;;;0.50;99.90;;;-0.65;100.00;101882.97;4217853;28;20019;-82
2022/12/02 05:58:35;;;;;;;49.00;22.58;;;0.50;99.90;;;-0.63;100.00;101880.34;4217565;28;20141;-81
2022/12/02 06:00:36;;;;;;;47.90;21.38;;;0.50;99.90;;;-0.71;100.00;101872.00;4217366;28;20036;-82
2022/12/02 06:02:44;;;;;;;39.13;19.55;;;0.50;99.90;;;-0.78;100.00;101870.56;4218959;28;20573;-81
2022/12/02 06:04:45;;;;;;;44.35;20.35;;;0.40;99.90;;;-0.82;100.00;101871.56;4218120;28;20085;-81
2022/12/02 06:06:47;;;;;;;46.65;20.73;;;0.40;99.90;;;-0.86;100.00;101869.97;4218667;28;20020;-81
2022/12/02 06:08:47;;;;;;;42.55;19.88;;;0.30;99.90;;;-0.91;100.00;101864.13;4217354;28;20028;-81
2022/12/02 06:10:58;;;;;;;46.45;20.63;;;0.30;99.90;;;-0.96;100.00;101861.72;4218840;28;20023;-82
2022/12/02 06:13:19;;;;;;;40.75;19.67;;;0.30;99.90;;;-0.96;100.00;101872.06;4218598;28;20063;-81
2022/12/02 06:15:20;;;;;;;40.17;19.15;;;0.20;99.90;;;-1.02;100.00;101854.16;4217655;28;20395;-81
2022/12/02 06:17:21;;;;;;;65.40;23.55;;;0.20;99.90;;;-1.00;100.00;101859.28;4217426;28;20484;-82
2022/12/02 06:19:52;;;;;;;46.38;21.25;;;0.20;99.90;;;-0.97;100.00;101853.97;4216321;28;20027;-81
2022/12/02 06:21:55;;;;;;;45.28;21.05;;;0.20;99.90;;;-1.03;100.00;101852.47;4234599;28;20034;-82
2022/12/02 06:23:57;;;;;;;37.35;18.27;;;0.20;99.90;;;-1.02;100.00;101850.72;4217761;28;20074;-82
2022/12/02 06:25:59;;;;;;;45.05;20.92;;;0.20;99.90;;;-1.06;100.00;101849.13;4218504;28;20050;-82
2022/12/02 06:28:37;;;;;;;46.63;21.70;;;0.10;99.90;;;-1.05;100.00;101850.84;4217154;28;20024;-82
2022/12/02 06:30:39;;;;;;;45.05;21.17;;;0.10;99.90;;;-1.08;100.00;101850.94;4216882;28;20027;-81
2022/12/02 06:32:49;;;;;;;49.00;22.27;;;0.10;99.90;;;-1.11;100.00;101842.38;4217166;28;20450;-82
2022/12/02 06:34:53;;;;;;;52.20;22.65;;;0.10;99.90;;;-1.08;100.00;101850.94;4217400;28;20052;-80
2022/12/02 06:36:57;;;;;;;43.90;18.88;;;0.10;99.90;;;-1.06;100.00;101849.13;4218531;28;20399;-81
2022/12/02 06:39:20;;;;;;;44.25;20.92;;;0.10;99.90;;;-1.04;100.00;101863.72;4217308;28;20032;-81
2022/12/02 06:41:25;;;;;;;45.88;19.85;;;0.10;99.90;;;-1.01;100.00;101862.75;4218485;28;20032;-81
2022/12/02 06:43:30;;;;;;;43.00;21.35;;;0.10;99.90;;;-1.03;100.00;101856.78;4217129;28;20034;-82
2022/12/02 06:45:33;;;;;;;37.97;19.13;;;0.10;99.90;;;-1.06;100.00;101862.06;4216909;28;20039;-82
2022/12/02 06:47:35;;;;;;;52.05;22.45;;;0.10;99.90;;;-1.03;100.00;101864.56;4216695;28;20021;-82
2022/12/02 06:49:39;;;;;;;40.45;21.35;;;0.10;99.90;;;-1.06;100.00;101843.97;4218343;28;20092;-81
2022/12/02 06:51:40;;;;;;;50.83;22.83;;;0.10;99.90;;;-1.04;100.00;101849.91;4217023;28;20020;-82
2022/12/02 06:53:41;;;;;;;48.60;22.23;;;0.10;99.90;;;-1.05;100.00;101845.66;4217079;28;20043;-81
2022/12/02 06:55:42;;;;;;;51.72;23.90;;;0.10;99.90;;;-1.03;100.00;101849.03;4233616;28;20115;-82
2022/12/02 06:57:43;;;;;;;51.10;23.85;;;0.10;99.90;;;-0.96;100.00;101860.88;4217156;28;20107;-82
2022/12/02 06:59:48;;;;;;;54.10;24.70;;;0.10;99.90;;;-0.99;100.00;101846.28;4218231;28;20039;-82
2022/12/02 07:01:56;;;;;;;45.78;21.77;;;0.20;99.90;;;-0.95;100.00;101855.63;4216811;28;20028;-82
2022/12/02 07:04:24;;;;;;;42.97;19.17;;;0.20;99.90;;;-0.98;100.00;101855.72;4233612;28;20038;-81
2022/12/02 07:06:28;;;;;;;47.55;21.05;;;0.20;99.90;;;-0.99;100.00;101863.56;4218216;28;20055;-82
2022/12/02 07:08:35;;;;;;;45.00;19.73;;;0.20;99.90;;;-0.97;100.00;101861.75;4233863;28;20019;-82
2022/12/02 07:10:36;;;;;;;54.75;22.25;;;0.20;99.90;;;-0.90;100.00;101865.81;4217138;28;20270;-82
2022/12/02 07:12:41;;;;;;;50.33;22.80;;;0.20;99.90;;;-0.87;100.00;101863.13;4216943;28;20025;-82
2022/12/02 07:14:55;;;;;;;56.08;24.50;;;0.30;99.90;;;-0.86;100.00;101863.03;4218139;28;20028;-81
2022/12/02 07:17:08;;;;;;;62.10;26.23;;;0.30;99.90;;;-0.82;100.00;101858.59;4219083;28;20062;-81
2022/12/02 07:19:23;;;;;;;60.00;26.15;;;0.30;99.90;;;-0.77;100.00;101861.84;4219329;28;20027;-81
2022/12/02 07:21:23;;;;;;;51.10;23.83;;;0.40;99.90;;;-0.82;100.00;101849.09;4221251;28;20470;-80
2022/12/02 07:23:26;;;;;;;50.80;24.05;;;0.30;99.90;;;-0.78;100.00;101857.59;4219648;28;20070;-81
2022/12/02 07:25:37;;;;;;;52.50;24.08;;;0.40;99.90;;;-0.78;100.00;101860.19;4221042;28;20032;-81
2022/12/02 07:27:46;;;;;;;55.15;24.58;;;0.30;99.90;;;-0.83;100.00;101852.56;4219953;28;20038;-81
2022/12/02 07:29:48;;;;;;;56.40;24.20;;;0.30;99.90;;;-0.81;100.00;101857.72;4219812;28;20059;-81
2022/12/02 07:31:49;;;;;;;55.05;22.02;;;0.40;99.90;;;-0.76;100.00;101856.63;4220948;28;20086;-82
2022/12/02 07:33:51;;;;;;;51.70;23.88;;;0.40;99.90;;;-0.79;100.00;101858.50;4221217;28;20036;-81
2022/12/02 07:35:51;;;;;;;55.78;23.10;;;0.30;99.90;;;-0.80;100.00;101854.19;4221063;28;20016;-82
2022/12/02 07:37:53;;;;;;;55.45;24.02;;;0.30;99.90;;;-0.79;100.00;101853.31;4219622;28;20035;-81
2022/12/02 07:39:53;;;;;;;51.72;23.45;;;0.30;99.90;;;-0.83;100.00;101851.72;4253148;27;20015;-81
2022/12/02 07:41:54;;;;;;;55.58;24.38;;;0.30;99.90;;;-0.81;100.00;101857.72;4221081;28;20020;-82
2022/12/02 07:43:55;;;;;;;49.33;23.90;;;0.30;99.90;;;-0.81;100.00;101855.97;4220862;28;20089;-82
2022/12/02 07:45:56;;;;;;;58.70;24.60;;;0.30;99.90;;;-0.80;100.00;101851.63;4220509;28;20160;-81
2022/12/02 07:47:57;;;;;;;56.63;23.77;;;0.30;99.90;;;-0.78;100.00;101855.00;4219600;28;20043;-82
2022/12/02 07:49:58;;;;;;;54.75;23.10;;;0.30;99.90;;;-0.75;100.00;101862.66;4219657;28;20024;-82
2022/12/02 07:51:59;;;;;;;48.63;23.85;;;0.40;99.90;;;-0.72;100.00;101859.97;4219362;28;20032;-81
2022/12/02 07:54:00;;;;;;;50.33;23.15;;;0.40;99.90;;;-0.77;100.00;101860.13;4220126;28;20036;-80
2022/12/02 07:56:00;;;;;;;39.28;19.77;;;0.40;99.90;;;-0.74;100.00;101869.53;4220752;28;20056;-80
2022/12/02 07:58:01;;;;;;;43.03;20.05;;;0.40;99.90;;;-0.79;100.00;101868.84;4220666;28;20484;-80
2022/12/02 08:00:06;;;;;;;45.03;21.08;;;0.40;99.90;;;-0.79;100.00;101863.66;4220605;28;20024;-81
2022/12/02 08:02:06;;;;;;;44.67;20.98;;;0.40;99.90;;;-0.80;100.00;101868.00;4220134;28;20028;-81
2022/12/02 08:04:08;;;;;;;39.92;20.08;;;0.40;99.90;;;-0.81;100.00;101858.56;4220711;28;20085;-80
2022/12/02 08:06:08;;;;;;;47.03;21.15;;;0.40;99.90;;;-0.76;100.00;101877.38;4220707;28;20579;-81
2022/12/02 08:08:09;;;;;;;44.47;20.42;;;0.40;99.90;;;-0.78;100.00;101874.00;4220476;28;20024;-80
2022/12/02 08:10:11;;;;;;;54.30;24.70;;;0.40;99.90;;;-0.71;100.00;101877.19;4220299;28;20051;-81
2022/12/02 08:12:11;;;;;;;56.35;24.08;;;0.40;99.90;;;-0.61;100.00;101875.94;4219326;28;20022;-80
2022/12/02 08:14:12;;;;;;;49.58;23.77;;;0.50;99.90;;;-0.55;100.00;101870.53;4220472;28;20020;-80
2022/12/02 08:16:13;;;;;;;54.42;24.77;;;0.50;99.90;;;-0.49;100.00;101867.72;4218928;28;20024;-80
2022/12/02 08:18:14;;;;;;;54.13;25.30;;;0.60;99.90;;;-0.43;100.00;101871.81;4218136;28;20024;-81
2022/12/02 08:20:15;;;;;;;62.38;27.17;;;0.70;99.90;;;-0.38;100.00;101868.13;4219395;28;20028;-81
2022/12/02 08:22:16;;;;;;;48.65;24.10;;;0.70;99.90;;;-0.31;100.00;101869.59;4219022;28;20048;-80
2022/12/02 08:24:17;;;;;;;52.88;24.73;;;0.80;99.90;;;-0.27;100.00;101867.75;4218925;28;20016;-80